createdAt,value
2017-10-27T00:02:36.984Z,17.00
2017-10-27T00:08:40.490Z,16.53
2017-10-27T00:14:44.243Z,16.03
2017-10-27T00:20:47.934Z,15.50
2017-10-27T00:26:51.821Z,17.10
2017-10-27T00:32:55.323Z,14.93
2017-10-27T00:38:58.816Z,14.40
2017-10-27T00:45:02.293Z,14.53
2017-10-27T00:51:05.896Z,14.20
2017-10-27T00:57:10.292Z,13.10
2017-10-27T01:03:14.620Z,11.70
2017-10-27T01:09:18.807Z,12.37
2017-10-27T01:15:23.065Z,9.90
2017-10-27T01:21:26.634Z,10.47
2017-10-27T01:27:30.109Z,10.70
2017-10-27T01:33:34.333Z,11.07
2017-10-27T01:39:37.891Z,8.37
2017-10-27T01:45:41.348Z,7.30
2017-10-27T01:51:44.799Z,7.33
2017-10-27T01:57:48.846Z,7.50
2017-10-27T02:03:52.615Z,8.20
2017-10-27T02:09:56.459Z,8.47
2017-10-27T02:16:00.098Z,6.17
2017-10-27T02:22:03.778Z,7.43
2017-10-27T02:28:07.238Z,6.60
2017-10-27T02:34:10.874Z,6.30
2017-10-27T02:40:14.609Z,5.83
2017-10-27T02:46:18.480Z,5.80
2017-10-27T02:52:22.861Z,4.93
2017-10-27T02:58:26.349Z,5.97
2017-10-27T03:04:29.829Z,4.97
2017-10-27T03:10:34.233Z,6.27
2017-10-27T03:16:38.057Z,4.67
2017-10-27T03:22:42.070Z,4.70
2017-10-27T03:28:46.512Z,5.60
2017-10-27T03:34:50.117Z,6.20
2017-10-27T03:40:53.853Z,5.10
2017-10-27T03:46:58.109Z,5.50
2017-10-27T03:53:02.114Z,4.97
2017-10-27T03:59:05.715Z,6.00
2017-10-27T04:05:09.351Z,5.03
2017-10-27T04:11:13.173Z,4.77
2017-10-27T04:17:17.441Z,5.00
2017-10-27T04:23:21.937Z,5.00
2017-10-27T04:29:25.860Z,5.23
2017-10-27T04:35:29.393Z,4.50
2017-10-27T04:41:33.170Z,5.10
2017-10-27T04:47:36.718Z,3.40
2017-10-27T04:53:40.593Z,4.70
2017-10-27T04:59:44.095Z,4.00
2017-10-27T05:05:47.851Z,4.00
2017-10-27T05:11:51.601Z,3.80
2017-10-27T05:18:01.299Z,3.53
2017-10-27T05:24:11.467Z,3.07
2017-10-27T05:30:16.260Z,3.07
2017-10-27T05:36:19.845Z,2.83
2017-10-27T05:42:24.074Z,3.03
2017-10-27T05:48:27.928Z,3.10
2017-10-27T05:54:31.481Z,2.93
2017-10-27T06:00:34.993Z,3.07
2017-10-27T06:06:39.259Z,3.10
2017-10-27T06:12:43.557Z,2.83
2017-10-27T06:18:48.181Z,2.63
2017-10-27T06:24:52.045Z,2.77
2017-10-27T06:30:55.823Z,2.80
2017-10-27T06:37:00.085Z,1.93
2017-10-27T06:43:03.568Z,2.30
2017-10-27T06:49:07.038Z,2.33
2017-10-27T06:55:10.617Z,2.30
2017-10-27T07:01:14.549Z,2.20
2017-10-27T07:07:18.045Z,2.30
2017-10-27T07:13:21.544Z,2.30
2017-10-27T07:19:25.823Z,2.60
2017-10-27T07:25:30.046Z,2.43
2017-10-27T07:31:33.514Z,2.47
2017-10-27T07:37:36.973Z,2.33
2017-10-27T07:43:40.446Z,2.20
2017-10-27T07:49:45.125Z,2.43
2017-10-27T07:55:49.361Z,1.93
2017-10-27T08:01:52.811Z,2.57
2017-10-27T08:07:56.379Z,2.70
2017-10-27T08:13:59.833Z,2.20
2017-10-27T08:20:03.311Z,2.23
2017-10-27T08:26:07.555Z,1.50
2017-10-27T08:32:11.009Z,2.20
2017-10-27T08:38:14.653Z,2.27
2017-10-27T08:44:18.930Z,2.07
2017-10-27T08:50:22.487Z,2.10
2017-10-27T08:56:26.354Z,1.80
2017-10-27T09:02:30.571Z,2.20
2017-10-27T09:08:34.829Z,2.00
2017-10-27T09:14:38.303Z,2.50
2017-10-27T09:20:41.960Z,2.23
2017-10-27T09:26:45.874Z,2.57
2017-10-27T09:32:49.494Z,2.17
2017-10-27T09:38:53.103Z,1.10
2017-10-27T09:44:56.692Z,1.30
2017-10-27T09:51:00.192Z,1.73
2017-10-27T09:57:04.004Z,3.03
2017-10-27T10:03:07.497Z,3.47
2017-10-27T10:09:11.514Z,1.83
2017-10-27T10:15:17.211Z,1.80
2017-10-27T10:21:20.735Z,1.23
2017-10-27T10:27:24.279Z,1.50
2017-10-27T10:33:27.898Z,1.93
2017-10-27T10:39:31.514Z,1.77
2017-10-27T10:45:34.952Z,1.83
2017-10-27T10:51:38.458Z,2.70
2017-10-27T10:57:41.894Z,2.57
2017-10-27T11:03:46.429Z,1.70
2017-10-27T11:09:49.961Z,1.70
2017-10-27T11:15:53.407Z,1.40
2017-10-27T11:21:56.860Z,1.80
2017-10-27T11:28:00.512Z,2.00
2017-10-27T11:34:03.966Z,2.40
2017-10-27T11:40:07.554Z,1.97
2017-10-27T11:46:11.172Z,1.90
2017-10-27T11:52:16.404Z,2.03
2017-10-27T11:58:20.405Z,2.00
2017-10-27T12:04:23.907Z,1.90
2017-10-27T12:10:27.441Z,3.07
2017-10-27T12:16:31.654Z,2.57
2017-10-27T12:22:35.106Z,2.07
2017-10-27T12:28:38.676Z,2.20
2017-10-27T12:34:42.187Z,1.43
2017-10-27T12:40:45.897Z,1.27
2017-10-27T12:46:49.492Z,1.53
2017-10-27T12:52:53.837Z,2.10
2017-10-27T12:58:57.320Z,2.07
2017-10-27T13:05:00.758Z,2.47
2017-10-27T13:11:05.041Z,3.13
2017-10-27T13:17:08.505Z,7.17
2017-10-27T13:23:12.034Z,16.40
2017-10-27T13:29:15.822Z,2.60
2017-10-27T13:35:19.295Z,2.30
2017-10-27T13:41:22.773Z,1.97
2017-10-27T13:47:26.284Z,2.17
2017-10-27T13:53:29.744Z,3.37
2017-10-27T13:59:33.544Z,2.37
2017-10-27T14:05:37.137Z,2.10
2017-10-27T14:11:40.602Z,3.20
2017-10-27T14:17:44.140Z,2.33
2017-10-27T14:23:49.085Z,2.10
2017-10-27T14:29:52.583Z,1.80
2017-10-27T14:35:56.146Z,3.03
2017-10-27T14:42:00.427Z,1.90
2017-10-27T14:48:04.086Z,2.57
2017-10-27T14:54:07.571Z,2.73
2017-10-27T15:00:11.664Z,2.80
2017-10-27T15:06:17.172Z,1.77
2017-10-27T15:12:20.724Z,1.63
2017-10-27T15:18:24.212Z,2.90
2017-10-27T15:24:28.617Z,2.40
2017-10-27T15:30:32.140Z,2.33
2017-10-27T15:36:36.570Z,2.53
2017-10-27T15:42:40.184Z,3.70
2017-10-27T15:48:44.542Z,2.40
2017-10-27T15:54:48.931Z,2.27
2017-10-27T16:00:52.425Z,2.70
2017-10-27T16:06:56.002Z,1.90
2017-10-27T16:12:59.457Z,2.63
2017-10-27T16:19:03.022Z,2.70
2017-10-27T16:25:07.506Z,2.40
2017-10-27T16:31:11.848Z,2.40
2017-10-27T16:37:16.105Z,3.70
2017-10-27T16:43:19.773Z,3.63
2017-10-27T16:49:23.345Z,3.17
2017-10-27T16:55:26.843Z,2.70
2017-10-27T17:01:30.448Z,5.33
2017-10-27T17:07:34.167Z,10.00
2017-10-27T17:13:38.464Z,3.53
2017-10-27T17:19:42.108Z,3.60
2017-10-27T17:25:46.617Z,2.30
2017-10-27T17:31:51.139Z,3.70
2017-10-27T17:37:54.822Z,3.40
2017-10-27T17:43:58.435Z,3.57
2017-10-27T17:50:02.825Z,2.67
2017-10-27T17:56:06.437Z,3.40
2017-10-27T18:02:09.938Z,4.73
2017-10-27T18:08:14.958Z,4.10
2017-10-27T18:14:19.406Z,5.50
2017-10-27T18:20:22.971Z,3.20
2017-10-27T18:26:26.560Z,4.97
2017-10-27T18:32:30.042Z,3.07
2017-10-27T18:38:34.340Z,4.07
2017-10-27T18:44:37.918Z,4.17
2017-10-27T18:50:41.411Z,4.40
2017-10-27T18:56:45.219Z,4.63
2017-10-27T19:02:49.143Z,3.50
2017-10-27T19:08:52.778Z,3.70
2017-10-27T19:14:56.343Z,3.80
2017-10-27T19:21:00.630Z,3.70
2017-10-27T19:27:04.900Z,4.40
2017-10-27T19:33:08.653Z,4.30
2017-10-27T19:39:13.113Z,4.07
2017-10-27T19:45:16.976Z,4.73
2017-10-27T19:51:20.481Z,3.57
2017-10-27T19:57:23.987Z,3.77
2017-10-27T20:03:27.459Z,3.07
2017-10-27T20:09:30.936Z,3.77
2017-10-27T20:15:35.175Z,3.53
2017-10-27T20:21:38.666Z,3.30
2017-10-27T20:27:42.962Z,6.03
2017-10-27T20:33:46.537Z,5.60
2017-10-27T20:39:50.061Z,3.90
2017-10-27T20:45:53.529Z,3.13
2017-10-27T20:51:57.133Z,3.33
2017-10-27T20:58:01.385Z,2.23
2017-10-27T21:04:05.000Z,2.63
2017-10-27T21:10:08.509Z,3.50
2017-10-27T21:16:12.150Z,4.00
2017-10-27T21:22:16.183Z,3.00
2017-10-27T21:28:20.007Z,2.60
2017-10-27T21:34:23.746Z,2.87
2017-10-27T21:40:27.254Z,2.20
2017-10-27T21:46:30.732Z,2.67
2017-10-27T21:52:34.250Z,2.90
2017-10-27T21:58:38.590Z,2.20
2017-10-27T22:04:42.256Z,2.37
2017-10-27T22:10:45.837Z,3.50
2017-10-27T22:16:49.510Z,2.50
2017-10-27T22:22:52.983Z,3.60
2017-10-27T22:28:56.458Z,2.50
2017-10-27T22:34:59.920Z,2.70
2017-10-27T22:41:04.381Z,2.30
2017-10-27T22:47:07.873Z,2.20
2017-10-27T22:53:12.130Z,2.27
2017-10-27T22:59:16.851Z,2.90
2017-10-27T23:05:20.412Z,3.00
2017-10-27T23:11:23.996Z,1.90
2017-10-27T23:17:27.590Z,1.90
2017-10-27T23:23:31.167Z,2.43
2017-10-27T23:29:35.419Z,2.40
2017-10-27T23:35:39.717Z,2.30
2017-10-27T23:41:43.520Z,2.63
2017-10-27T23:47:48.933Z,2.43
2017-10-27T23:53:52.746Z,2.80
2017-10-27T23:59:57.169Z,3.10
